createdAt,value
2016-11-20T00:00:00.333Z,996.96
2016-11-20T00:01:15.463Z,996.97
2016-11-20T00:02:29.742Z,996.96
2016-11-20T00:03:45.002Z,996.93
2016-11-20T00:05:00.216Z,996.89
2016-11-20T00:06:15.398Z,996.89
2016-11-20T00:07:30.227Z,996.84
2016-11-20T00:08:45.012Z,996.79
2016-11-20T00:10:00.668Z,996.77
2016-11-20T00:11:15.515Z,996.77
2016-11-20T00:12:30.584Z,996.73
2016-11-20T00:13:44.877Z,996.79
2016-11-20T00:14:59.064Z,996.81
2016-11-20T00:16:14.604Z,996.79
2016-11-20T00:17:29.490Z,996.74
2016-11-20T00:18:45.227Z,996.72
2016-11-20T00:19:59.887Z,996.73
2016-11-20T00:21:14.756Z,996.71
2016-11-20T00:22:29.490Z,996.72
2016-11-20T00:23:44.020Z,996.73
2016-11-20T00:24:59.186Z,996.68
2016-11-20T00:26:14.978Z,996.64
2016-11-20T00:27:29.892Z,996.65
2016-11-20T00:28:44.267Z,996.62
2016-11-20T00:29:58.751Z,996.62
2016-11-20T00:31:13.583Z,996.57
2016-11-20T00:32:42.700Z,996.58
2016-11-20T00:33:58.403Z,996.6
2016-11-20T00:35:13.043Z,996.56
2016-11-20T00:36:27.500Z,996.52
2016-11-20T00:37:43.077Z,996.48
2016-11-20T00:38:57.696Z,996.51
2016-11-20T00:40:12.893Z,996.43
2016-11-20T00:41:27.759Z,996.4
2016-11-20T00:42:42.605Z,996.38
2016-11-20T00:43:57.636Z,996.35
2016-11-20T00:45:11.950Z,996.34
2016-11-20T00:46:27.019Z,996.35
2016-11-20T00:47:41.445Z,996.37
2016-11-20T00:48:56.406Z,996.34
2016-11-20T00:50:12.223Z,996.38
2016-11-20T00:51:26.781Z,996.29
2016-11-20T00:52:41.399Z,996.3
2016-11-20T00:53:55.916Z,996.25
2016-11-20T00:55:10.519Z,996.2
2016-11-20T00:56:25.024Z,996.21
2016-11-20T00:57:39.567Z,996.15
2016-11-20T00:58:54.213Z,996.15
2016-11-20T01:00:09.387Z,996.17
2016-11-20T01:01:24.573Z,996.22
2016-11-20T01:02:39.018Z,996.26
2016-11-20T01:03:53.679Z,996.19
2016-11-20T01:05:08.199Z,996.2
2016-11-20T01:06:25.784Z,996.21
2016-11-20T01:07:40.635Z,996.19
2016-11-20T01:08:54.944Z,996.15
2016-11-20T01:10:09.981Z,996.17
2016-11-20T01:11:24.609Z,996.16
2016-11-20T01:12:38.955Z,996.14
2016-11-20T01:13:53.801Z,996.17
2016-11-20T01:15:09.012Z,996.1
2016-11-20T01:18:22.347Z,996.04
2016-11-20T01:19:36.744Z,996.02
2016-11-20T01:20:53.783Z,996.02
2016-11-20T01:22:08.477Z,995.96
2016-11-20T01:23:23.177Z,995.98
2016-11-20T01:24:39.679Z,995.93
2016-11-20T01:25:58.941Z,995.96
2016-11-20T01:27:15.914Z,996
2016-11-20T01:28:31.005Z,995.98
2016-11-20T01:29:49.148Z,995.97
2016-11-20T01:31:04.414Z,996.01
2016-11-20T01:32:18.827Z,995.98
2016-11-20T01:33:33.220Z,996.06
2016-11-20T01:34:47.532Z,996.08
2016-11-20T01:36:01.909Z,996.08
2016-11-20T01:37:16.459Z,996.08
2016-11-20T01:40:00.336Z,996.07
2016-11-20T01:41:14.754Z,996.03
2016-11-20T01:42:29.806Z,996.08
2016-11-20T01:43:59.282Z,996.09
2016-11-20T01:45:13.524Z,996.06
2016-11-20T01:46:27.841Z,996.04
2016-11-20T01:47:42.537Z,995.97
2016-11-20T01:48:57.249Z,995.96
2016-11-20T01:50:11.909Z,995.99
2016-11-20T01:51:26.272Z,996.01
2016-11-20T01:52:40.652Z,995.95
2016-11-20T01:53:55.564Z,995.96
2016-11-20T01:55:10.047Z,995.87
2016-11-20T01:56:24.558Z,995.86
2016-11-20T01:57:39.329Z,995.86
2016-11-20T01:58:53.623Z,995.85
2016-11-20T02:00:08.655Z,995.79
2016-11-20T02:01:23.426Z,995.72
2016-11-20T02:02:38.242Z,995.63
2016-11-20T02:03:52.585Z,995.62
2016-11-20T02:05:06.709Z,995.62
2016-11-20T02:06:21.126Z,995.54
2016-11-20T02:07:35.615Z,995.48
2016-11-20T02:08:49.957Z,995.45
2016-11-20T02:10:04.460Z,995.42
2016-11-20T02:11:18.937Z,995.41
2016-11-20T02:12:33.977Z,995.34
2016-11-20T02:13:48.332Z,995.27
2016-11-20T02:15:03.286Z,995.16
2016-11-20T02:16:17.734Z,995.11
2016-11-20T02:17:31.888Z,995.07
2016-11-20T02:18:46.589Z,994.96
2016-11-20T02:20:00.980Z,994.92
2016-11-20T02:21:15.402Z,994.9
2016-11-20T02:22:29.801Z,994.82
2016-11-20T02:23:44.481Z,994.88
2016-11-20T02:25:01.176Z,994.86
2016-11-20T02:26:15.680Z,994.83
2016-11-20T02:27:30.253Z,994.77
2016-11-20T02:28:44.608Z,994.68
2016-11-20T02:29:59.621Z,994.64
2016-11-20T02:31:14.363Z,994.55
2016-11-20T02:32:28.597Z,994.53
2016-11-20T02:33:43.365Z,994.57
2016-11-20T02:34:58.002Z,994.5
2016-11-20T02:36:12.263Z,994.46
2016-11-20T02:37:27.139Z,994.4
2016-11-20T02:38:41.552Z,994.37
2016-11-20T02:40:11.157Z,994.41
2016-11-20T02:44:22.571Z,994.41
2016-11-20T02:45:37.083Z,994.43
2016-11-20T02:46:51.885Z,994.45
2016-11-20T02:48:06.549Z,994.46
2016-11-20T02:49:21.156Z,994.42
2016-11-20T02:50:35.521Z,994.47
2016-11-20T02:51:51.634Z,994.43
2016-11-20T02:53:05.939Z,994.39
2016-11-20T02:54:20.179Z,994.38
2016-11-20T02:55:34.586Z,994.38
2016-11-20T02:56:49.307Z,994.38
2016-11-20T02:58:03.907Z,994.41
2016-11-20T02:59:18.238Z,994.31
2016-11-20T03:00:33.268Z,994.3
2016-11-20T03:01:48.020Z,994.27
2016-11-20T03:03:02.388Z,994.21
2016-11-20T03:04:17.095Z,994.2
2016-11-20T03:05:31.518Z,994.2
2016-11-20T03:06:46.039Z,994.23
2016-11-20T03:08:00.161Z,994.2
2016-11-20T03:09:14.455Z,994.2
2016-11-20T03:10:29.720Z,994.21
2016-11-20T03:11:44.325Z,994.23
2016-11-20T03:12:59.209Z,994.19
2016-11-20T03:14:13.614Z,994.21
2016-11-20T03:15:28.019Z,994.23
2016-11-20T03:16:42.527Z,994.23
2016-11-20T03:17:57.288Z,994.2
2016-11-20T03:19:11.728Z,994.22
2016-11-20T03:20:40.928Z,994.17
2016-11-20T03:21:55.253Z,994.18
2016-11-20T03:23:10.001Z,994.17
2016-11-20T03:24:24.737Z,994.12
2016-11-20T03:25:38.959Z,994.12
2016-11-20T03:26:53.479Z,994.15
2016-11-20T03:28:07.775Z,994.1
2016-11-20T03:29:22.406Z,994.09
2016-11-20T03:30:37.146Z,994.1
2016-11-20T03:31:51.296Z,994.09
2016-11-20T03:33:05.630Z,994.07
2016-11-20T03:34:20.182Z,994.1
2016-11-20T03:35:34.921Z,994.04
2016-11-20T03:36:49.634Z,994.08
2016-11-20T03:38:03.970Z,994.04
2016-11-20T03:39:18.416Z,994.02
2016-11-20T03:40:32.825Z,993.96
2016-11-20T03:41:47.171Z,994
2016-11-20T03:43:01.800Z,994.07
2016-11-20T03:44:18.409Z,994
2016-11-20T03:45:32.915Z,994
2016-11-20T03:46:47.199Z,994.02
2016-11-20T03:48:01.912Z,993.9
2016-11-20T03:49:16.271Z,994.01
2016-11-20T03:50:30.988Z,993.92
2016-11-20T03:53:44.348Z,993.81
2016-11-20T03:54:58.921Z,993.8
2016-11-20T03:56:13.408Z,993.75
2016-11-20T03:57:27.743Z,993.74
2016-11-20T03:58:42.332Z,993.67
2016-11-20T03:59:56.553Z,993.65
2016-11-20T04:01:11.230Z,993.59
2016-11-20T04:02:25.470Z,993.53
2016-11-20T04:03:40.033Z,993.5
2016-11-20T04:04:54.706Z,993.41
2016-11-20T04:06:08.814Z,993.44
2016-11-20T04:07:23.496Z,993.37
2016-11-20T04:08:38.523Z,993.39
2016-11-20T04:09:53.197Z,993.28
2016-11-20T04:11:07.627Z,993.27
2016-11-20T04:12:21.869Z,993.24
2016-11-20T04:13:36.490Z,993.19
2016-11-20T04:14:50.931Z,993.19
2016-11-20T04:16:05.412Z,993.16
2016-11-20T04:17:19.592Z,993.17
2016-11-20T04:18:33.611Z,993.14
2016-11-20T04:19:48.151Z,993.1
2016-11-20T04:21:02.475Z,993.12
2016-11-20T04:22:17.140Z,993.09
2016-11-20T04:23:31.666Z,993.07
2016-11-20T04:24:45.848Z,993.03
2016-11-20T04:26:00.643Z,993
2016-11-20T04:27:15.478Z,992.97
2016-11-20T04:28:30.088Z,992.96
2016-11-20T04:29:44.507Z,992.95
2016-11-20T04:30:58.845Z,992.93
2016-11-20T04:32:13.365Z,992.91
2016-11-20T04:33:27.809Z,992.87
2016-11-20T04:34:42.000Z,992.84
2016-11-20T04:35:56.627Z,992.82
2016-11-20T04:37:10.832Z,992.83
2016-11-20T04:38:25.507Z,992.87
2016-11-20T04:39:39.779Z,992.85
2016-11-20T04:43:51.625Z,992.84
2016-11-20T04:46:35.724Z,992.85
2016-11-20T04:47:49.816Z,992.81
2016-11-20T04:49:04.073Z,992.78
2016-11-20T04:50:18.589Z,992.8
2016-11-20T04:51:33.013Z,992.77
2016-11-20T04:52:47.831Z,992.74
2016-11-20T04:54:02.160Z,992.73
2016-11-20T04:55:16.894Z,992.64
2016-11-20T04:56:31.452Z,992.69
2016-11-20T04:57:45.693Z,992.71
2016-11-20T04:59:00.419Z,992.71
2016-11-20T05:00:14.691Z,992.67
2016-11-20T05:01:29.024Z,992.66
2016-11-20T05:02:43.449Z,992.69
2016-11-20T05:04:00.327Z,992.71
2016-11-20T05:05:14.860Z,992.71
2016-11-20T05:06:29.146Z,992.61
2016-11-20T05:07:43.840Z,992.58
2016-11-20T05:08:58.165Z,992.56
2016-11-20T05:10:12.520Z,992.55
2016-11-20T05:11:27.340Z,992.46
2016-11-20T05:12:41.716Z,992.37
2016-11-20T05:13:56.131Z,992.33
2016-11-20T05:15:10.824Z,992.34
2016-11-20T05:16:25.228Z,992.42
2016-11-20T05:17:39.964Z,992.41
2016-11-20T05:18:54.364Z,992.36
2016-11-20T05:20:08.915Z,992.39
2016-11-20T05:23:37.411Z,992.34
2016-11-20T05:24:51.648Z,992.24
2016-11-20T05:26:06.040Z,992.21
2016-11-20T05:27:20.995Z,992.16
2016-11-20T05:28:35.596Z,992.16
2016-11-20T05:29:49.836Z,992.13
2016-11-20T05:31:04.399Z,992.14
2016-11-20T05:32:18.633Z,992.16
2016-11-20T05:33:33.043Z,992.13
2016-11-20T05:34:48.232Z,992.11
2016-11-20T05:36:02.454Z,992.1
2016-11-20T05:37:17.272Z,992.13
2016-11-20T05:38:31.490Z,992.1
2016-11-20T05:39:45.928Z,992.1
2016-11-20T05:41:00.079Z,992.15
2016-11-20T05:42:14.390Z,992.2
2016-11-20T05:45:27.929Z,992.22
2016-11-20T05:46:42.205Z,992.17
2016-11-20T05:47:56.575Z,992.17
2016-11-20T05:49:10.910Z,992.12
2016-11-20T05:50:25.197Z,992.15
2016-11-20T05:51:54.291Z,992.17
2016-11-20T05:53:09.072Z,992.12
2016-11-20T05:54:23.628Z,991.99
2016-11-20T05:55:37.717Z,991.96
2016-11-20T05:56:51.852Z,991.91
2016-11-20T05:58:06.180Z,991.86
2016-11-20T05:59:21.625Z,991.91
2016-11-20T06:00:36.269Z,991.87
2016-11-20T06:01:50.522Z,991.88
2016-11-20T06:03:04.729Z,991.83
2016-11-20T06:06:03.499Z,991.83
2016-11-20T06:07:18.094Z,991.8
2016-11-20T06:08:32.624Z,991.8
2016-11-20T06:09:46.919Z,991.84
2016-11-20T06:11:01.171Z,991.85
2016-11-20T06:12:16.170Z,991.83
2016-11-20T06:13:30.291Z,991.81
2016-11-20T06:14:44.654Z,991.78
2016-11-20T06:15:59.148Z,991.82
2016-11-20T06:17:13.427Z,991.76
2016-11-20T06:18:28.601Z,991.64
2016-11-20T06:19:42.996Z,991.63
2016-11-20T06:20:57.393Z,991.6
2016-11-20T06:22:11.697Z,991.55
2016-11-20T06:23:43.647Z,991.56
2016-11-20T06:24:58.283Z,991.58
2016-11-20T06:26:12.661Z,991.6
2016-11-20T06:27:27.170Z,991.6
2016-11-20T06:28:41.599Z,991.59
2016-11-20T06:29:56.016Z,991.58
2016-11-20T06:31:10.775Z,991.63
2016-11-20T06:32:25.629Z,991.66
2016-11-20T06:33:40.018Z,991.64
2016-11-20T06:34:54.751Z,991.51
2016-11-20T06:36:09.352Z,991.49
2016-11-20T06:37:23.970Z,991.52
2016-11-20T06:38:52.873Z,991.56
2016-11-20T06:40:07.206Z,991.56
2016-11-20T06:41:21.498Z,991.51
2016-11-20T06:42:35.848Z,991.49
2016-11-20T06:43:50.401Z,991.46
2016-11-20T06:45:05.035Z,991.45
2016-11-20T06:46:19.689Z,991.49
2016-11-20T06:47:34.252Z,991.44
2016-11-20T06:48:48.553Z,991.48
2016-11-20T06:50:03.154Z,991.44
2016-11-20T06:51:17.806Z,991.44
2016-11-20T06:52:47.539Z,991.43
2016-11-20T06:54:01.852Z,991.41
2016-11-20T06:56:45.534Z,991.38
2016-11-20T06:58:00.120Z,991.33
2016-11-20T06:59:15.111Z,991.27
2016-11-20T07:00:29.875Z,991.38
2016-11-20T07:01:45.050Z,991.46
2016-11-20T07:02:59.790Z,991.46
2016-11-20T07:04:14.119Z,991.39
2016-11-20T07:05:29.483Z,991.42
2016-11-20T07:06:43.984Z,991.44
2016-11-20T07:07:58.942Z,991.35
2016-11-20T07:09:13.563Z,991.28
2016-11-20T07:10:31.297Z,991.28
2016-11-20T07:11:46.087Z,991.3
2016-11-20T07:13:01.416Z,991.27
2016-11-20T07:14:16.141Z,991.28
2016-11-20T07:15:30.779Z,991.25
2016-11-20T07:16:45.413Z,991.22
2016-11-20T07:18:00.445Z,991.2
2016-11-20T07:19:15.938Z,991.14
2016-11-20T07:20:30.558Z,991.12
2016-11-20T07:21:45.961Z,991.03
2016-11-20T07:23:01.052Z,991.07
2016-11-20T07:24:16.147Z,990.99
2016-11-20T07:25:30.832Z,990.96
2016-11-20T07:26:45.671Z,990.92
2016-11-20T07:28:00.432Z,990.94
2016-11-20T07:29:15.279Z,990.92
2016-11-20T07:30:30.244Z,991
2016-11-20T07:31:48.441Z,990.93
2016-11-20T07:33:03.572Z,990.92
2016-11-20T07:34:18.253Z,990.9
2016-11-20T07:35:32.852Z,990.94
2016-11-20T07:36:51.618Z,990.93
2016-11-20T07:38:21.128Z,990.94
2016-11-20T07:39:35.805Z,990.93
2016-11-20T07:40:50.089Z,990.95
2016-11-20T07:42:07.028Z,991.07
2016-11-20T07:43:21.661Z,991.01
2016-11-20T07:44:36.019Z,990.96
2016-11-20T07:45:50.681Z,990.92
2016-11-20T07:47:04.972Z,990.94
2016-11-20T07:48:19.944Z,990.88
2016-11-20T07:49:34.242Z,990.89
2016-11-20T07:50:48.858Z,990.86
2016-11-20T07:52:03.515Z,990.88
2016-11-20T07:53:17.752Z,990.87
2016-11-20T07:54:33.002Z,990.76
2016-11-20T07:55:49.006Z,990.64
2016-11-20T07:57:05.536Z,990.65
2016-11-20T07:58:29.581Z,990.67
2016-11-20T07:59:52.961Z,990.71
2016-11-20T08:01:15.635Z,990.72
2016-11-20T08:02:31.985Z,990.71
2016-11-20T08:04:02.144Z,990.67
2016-11-20T08:05:22.657Z,990.59
2016-11-20T08:06:37.266Z,990.6
2016-11-20T08:07:52.077Z,990.57
2016-11-20T08:09:06.932Z,990.65
2016-11-20T08:10:22.350Z,990.55
2016-11-20T08:11:51.625Z,990.6
2016-11-20T08:13:06.143Z,990.59
2016-11-20T08:14:20.738Z,990.56
2016-11-20T08:15:35.422Z,990.48
2016-11-20T08:16:50.042Z,990.49
2016-11-20T08:18:04.581Z,990.53
2016-11-20T08:19:18.886Z,990.47
2016-11-20T08:20:33.494Z,990.5
2016-11-20T08:21:48.369Z,990.43
2016-11-20T08:23:02.616Z,990.39
2016-11-20T08:24:16.992Z,990.34
2016-11-20T08:25:31.312Z,990.34
2016-11-20T08:26:45.889Z,990.38
2016-11-20T08:28:00.590Z,990.4
2016-11-20T08:29:15.394Z,990.33
2016-11-20T08:30:30.078Z,990.34
2016-11-20T08:31:44.369Z,990.32
2016-11-20T08:32:58.754Z,990.29
2016-11-20T08:34:13.788Z,990.23
2016-11-20T08:35:28.426Z,990.17
2016-11-20T08:36:43.179Z,990.1
2016-11-20T08:37:57.733Z,990.11
2016-11-20T08:39:12.228Z,990.07
2016-11-20T08:40:26.988Z,990.04
2016-11-20T08:41:41.335Z,990
2016-11-20T08:42:56.213Z,990.02
2016-11-20T08:44:10.772Z,990.03
2016-11-20T08:45:25.552Z,989.98
2016-11-20T08:46:39.880Z,990.07
2016-11-20T08:47:54.361Z,989.98
2016-11-20T08:49:08.668Z,989.99
2016-11-20T08:50:23.103Z,990.03
2016-11-20T08:51:37.516Z,990.01
2016-11-20T08:52:52.534Z,990.01
2016-11-20T08:54:08.259Z,989.98
2016-11-20T08:55:22.711Z,989.92
2016-11-20T08:56:37.362Z,989.94
2016-11-20T08:57:51.843Z,989.94
2016-11-20T08:59:06.345Z,989.99
2016-11-20T09:00:23.063Z,989.96
2016-11-20T09:01:37.706Z,989.87
2016-11-20T09:02:52.275Z,989.79
2016-11-20T09:04:06.745Z,989.69
2016-11-20T09:05:21.385Z,989.73
2016-11-20T09:06:36.362Z,989.86
2016-11-20T09:07:51.024Z,989.92
2016-11-20T09:09:05.273Z,989.94
2016-11-20T09:10:19.833Z,989.98
2016-11-20T09:11:34.626Z,989.91
2016-11-20T09:12:49.656Z,989.91
2016-11-20T09:14:04.278Z,989.86
2016-11-20T09:15:18.602Z,989.85
2016-11-20T09:16:33.472Z,989.88
2016-11-20T09:17:47.896Z,989.79
2016-11-20T09:19:03.127Z,989.86
2016-11-20T09:20:18.163Z,989.82
2016-11-20T09:21:33.664Z,989.76
2016-11-20T09:22:48.204Z,989.76
2016-11-20T09:24:03.514Z,989.75
2016-11-20T09:25:18.014Z,989.74
2016-11-20T09:26:32.734Z,989.67
2016-11-20T09:27:47.310Z,989.68
2016-11-20T09:29:03.350Z,989.8
2016-11-20T09:30:18.092Z,989.85
2016-11-20T09:31:32.607Z,989.83
2016-11-20T09:32:47.323Z,989.8
2016-11-20T09:34:02.166Z,989.76
2016-11-20T09:35:17.574Z,989.77
2016-11-20T09:36:31.981Z,989.8
2016-11-20T09:37:46.505Z,989.76
2016-11-20T09:39:00.972Z,989.75
2016-11-20T09:40:15.445Z,989.66
2016-11-20T09:41:29.717Z,989.71
2016-11-20T09:42:45.096Z,989.71
2016-11-20T09:44:01.652Z,989.78
2016-11-20T09:45:20.863Z,989.73
2016-11-20T09:46:36.577Z,989.75
2016-11-20T09:47:53.729Z,989.75
2016-11-20T09:49:09.731Z,989.76
2016-11-20T09:50:25.430Z,989.69
2016-11-20T09:51:59.538Z,989.67
2016-11-20T09:53:23.230Z,989.66
2016-11-20T09:54:42.492Z,989.64
2016-11-20T09:55:59.391Z,989.69
2016-11-20T09:57:15.196Z,989.71
2016-11-20T09:58:29.971Z,989.68
2016-11-20T09:59:44.945Z,989.7
2016-11-20T10:00:59.439Z,989.75
2016-11-20T10:02:14.766Z,989.75
2016-11-20T10:03:29.594Z,989.71
2016-11-20T10:04:44.193Z,989.68
2016-11-20T10:05:59.600Z,989.71
2016-11-20T10:07:13.938Z,989.62
2016-11-20T10:08:28.586Z,989.58
2016-11-20T10:09:42.849Z,989.53
2016-11-20T10:10:58.187Z,989.59
2016-11-20T10:12:13.951Z,989.54
2016-11-20T10:13:29.364Z,989.62
2016-11-20T10:14:44.295Z,989.66
2016-11-20T10:16:13.816Z,989.55
2016-11-20T10:17:28.330Z,989.52
2016-11-20T10:18:45.934Z,989.51
2016-11-20T10:20:00.764Z,989.6
2016-11-20T10:21:15.099Z,989.55
2016-11-20T10:22:29.919Z,989.6
2016-11-20T10:23:44.076Z,989.56
2016-11-20T10:24:58.779Z,989.57
2016-11-20T10:26:13.816Z,989.57
2016-11-20T10:27:28.021Z,989.59
2016-11-20T10:28:42.427Z,989.57
2016-11-20T10:29:57.753Z,989.56
2016-11-20T10:31:12.196Z,989.54
2016-11-20T10:32:41.781Z,989.61
2016-11-20T10:33:56.389Z,989.54
2016-11-20T10:35:11.494Z,989.58
2016-11-20T10:36:26.038Z,989.57
2016-11-20T10:37:40.807Z,989.56
2016-11-20T10:38:55.716Z,989.53
2016-11-20T10:40:10.280Z,989.56
2016-11-20T10:41:25.316Z,989.49
2016-11-20T10:42:40.060Z,989.51
2016-11-20T10:43:54.368Z,989.56
2016-11-20T10:45:09.364Z,989.42
2016-11-20T10:46:23.914Z,989.28
2016-11-20T10:47:39.106Z,989.37
2016-11-20T10:48:53.614Z,989.29
2016-11-20T10:50:08.535Z,989.25
2016-11-20T10:51:26.162Z,989.35
2016-11-20T10:52:40.747Z,989.16
2016-11-20T10:53:55.978Z,989.21
2016-11-20T10:55:10.348Z,989.15
2016-11-20T10:56:26.407Z,989.15
2016-11-20T10:57:41.447Z,989.22
2016-11-20T10:58:56.251Z,989.2
2016-11-20T11:00:10.726Z,989.14
2016-11-20T11:01:25.647Z,989.22
2016-11-20T11:02:41.528Z,989.18
2016-11-20T11:03:56.903Z,989.09
2016-11-20T11:05:12.021Z,988.96
2016-11-20T11:06:26.338Z,989.12
2016-11-20T11:07:40.966Z,989.12
2016-11-20T11:08:55.343Z,989.13
2016-11-20T11:10:09.935Z,989.08
2016-11-20T11:11:24.214Z,989.08
2016-11-20T11:12:38.650Z,989.07
2016-11-20T11:13:53.639Z,988.94
2016-11-20T11:15:08.063Z,989.04
2016-11-20T11:16:37.761Z,988.97
2016-11-20T11:17:52.620Z,988.93
2016-11-20T11:19:07.557Z,988.84
2016-11-20T11:20:21.785Z,989.02
2016-11-20T11:21:36.666Z,988.91
2016-11-20T11:22:51.067Z,988.73
2016-11-20T11:24:05.459Z,988.83
2016-11-20T11:25:20.076Z,988.73
2016-11-20T11:26:34.931Z,988.81
2016-11-20T11:29:18.645Z,988.8
2016-11-20T11:30:33.382Z,988.85
2016-11-20T11:31:47.657Z,988.86
2016-11-20T11:33:02.485Z,988.73
2016-11-20T11:34:17.169Z,988.81
2016-11-20T11:35:31.664Z,988.65
2016-11-20T11:36:48.481Z,988.71
2016-11-20T11:38:03.785Z,988.82
2016-11-20T11:39:18.394Z,988.81
2016-11-20T11:40:33.480Z,988.71
2016-11-20T11:41:47.893Z,988.82
2016-11-20T11:43:02.481Z,988.68
2016-11-20T11:44:16.761Z,988.79
2016-11-20T11:45:31.650Z,988.7
2016-11-20T11:46:46.314Z,988.71
2016-11-20T11:48:00.897Z,988.74
2016-11-20T11:49:15.632Z,988.73
2016-11-20T11:50:29.996Z,988.74
2016-11-20T11:51:44.829Z,988.79
2016-11-20T11:52:59.830Z,988.72
2016-11-20T11:54:14.325Z,988.77
2016-11-20T11:55:29.134Z,988.73
2016-11-20T11:56:43.669Z,988.68
2016-11-20T11:57:58.160Z,988.59
2016-11-20T11:59:13.362Z,988.61
2016-11-20T12:00:27.549Z,988.77
2016-11-20T12:01:42.548Z,988.68
2016-11-20T12:02:57.239Z,988.69
2016-11-20T12:04:14.677Z,988.67
2016-11-20T12:05:29.909Z,988.48
2016-11-20T12:06:44.854Z,988.48
2016-11-20T12:08:00.497Z,988.56
2016-11-20T12:09:14.955Z,988.59
2016-11-20T12:10:29.483Z,988.7
2016-11-20T12:11:44.946Z,988.6
2016-11-20T12:13:00.066Z,988.64
2016-11-20T12:14:14.643Z,988.62
2016-11-20T12:15:29.764Z,988.64
2016-11-20T12:16:45.249Z,988.63
2016-11-20T12:18:00.780Z,988.67
2016-11-20T12:19:15.992Z,988.69
2016-11-20T12:20:31.470Z,988.67
2016-11-20T12:22:00.761Z,988.66
2016-11-20T12:23:16.662Z,988.69
2016-11-20T12:24:31.617Z,988.77
2016-11-20T12:25:47.481Z,988.68
2016-11-20T12:27:02.557Z,988.65
2016-11-20T12:28:17.297Z,988.7
2016-11-20T12:29:33.139Z,988.65
2016-11-20T12:30:49.038Z,988.78
2016-11-20T12:32:04.683Z,988.75
2016-11-20T12:33:34.036Z,988.78
2016-11-20T12:34:48.965Z,988.83
2016-11-20T12:36:03.920Z,988.85
2016-11-20T12:37:19.328Z,988.85
2016-11-20T12:38:34.531Z,988.76
2016-11-20T12:39:49.621Z,988.68
2016-11-20T12:41:05.303Z,988.76
2016-11-20T12:42:20.217Z,988.85
2016-11-20T12:43:35.011Z,988.91
2016-11-20T12:44:49.899Z,988.85
2016-11-20T12:46:05.464Z,988.83
2016-11-20T12:47:19.929Z,988.77
2016-11-20T12:48:35.028Z,988.69
2016-11-20T12:49:49.731Z,988.69
2016-11-20T12:51:04.076Z,988.72
2016-11-20T12:52:19.467Z,988.75
2016-11-20T12:53:34.432Z,988.75
2016-11-20T12:54:52.010Z,988.63
2016-11-20T12:56:06.862Z,988.81
2016-11-20T12:57:21.804Z,988.79
2016-11-20T12:58:36.241Z,988.81
2016-11-20T13:00:05.667Z,988.71
2016-11-20T13:01:20.729Z,988.75
2016-11-20T13:02:35.656Z,988.72
2016-11-20T13:03:50.378Z,988.7
2016-11-20T13:05:04.932Z,988.66
2016-11-20T13:06:19.504Z,988.75
2016-11-20T13:07:33.999Z,988.7
2016-11-20T13:08:48.335Z,988.72
2016-11-20T13:10:03.777Z,988.73
2016-11-20T13:11:18.813Z,988.76
2016-11-20T13:12:33.851Z,988.63
2016-11-20T13:13:49.299Z,988.56
2016-11-20T13:15:04.753Z,988.68
2016-11-20T13:16:19.622Z,988.63
2016-11-20T13:17:34.479Z,988.62
2016-11-20T13:18:49.549Z,988.71
2016-11-20T13:20:04.290Z,988.7
2016-11-20T13:21:18.768Z,988.67
2016-11-20T13:22:33.098Z,988.76
2016-11-20T13:23:47.362Z,988.66
2016-11-20T13:25:01.785Z,988.61
2016-11-20T13:26:16.054Z,988.72
2016-11-20T13:27:30.619Z,988.66
2016-11-20T13:28:45.088Z,988.61
2016-11-20T13:29:59.771Z,988.59
2016-11-20T13:31:14.273Z,988.54
2016-11-20T13:32:28.399Z,988.57
2016-11-20T13:33:43.367Z,988.58
2016-11-20T13:34:59.070Z,988.59
2016-11-20T13:36:13.327Z,988.61
2016-11-20T13:37:28.165Z,988.62
2016-11-20T13:38:42.748Z,988.66
2016-11-20T13:39:57.459Z,988.66
2016-11-20T13:41:11.924Z,988.6
2016-11-20T13:42:26.840Z,988.55
2016-11-20T13:43:41.590Z,988.62
2016-11-20T13:44:55.787Z,988.6
2016-11-20T13:46:09.924Z,988.57
2016-11-20T13:47:24.645Z,988.63
2016-11-20T13:48:39.426Z,988.45
2016-11-20T13:49:54.668Z,988.48
2016-11-20T13:51:09.036Z,988.55
2016-11-20T13:52:23.443Z,988.61
2016-11-20T13:53:38.183Z,988.64
2016-11-20T13:54:53.067Z,988.56
2016-11-20T13:56:09.156Z,988.69
2016-11-20T13:57:43.342Z,988.81
2016-11-20T13:58:58.175Z,988.83
2016-11-20T14:00:12.724Z,988.8
2016-11-20T14:01:28.077Z,988.87
2016-11-20T14:02:57.058Z,989.07
2016-11-20T14:04:12.547Z,989.01
2016-11-20T14:05:28.329Z,988.97
2016-11-20T14:06:43.909Z,988.99
2016-11-20T14:07:58.634Z,988.92
2016-11-20T14:09:13.797Z,988.99
2016-11-20T14:10:28.283Z,989
2016-11-20T14:11:42.585Z,989.08
2016-11-20T14:13:00.712Z,989.08
2016-11-20T14:14:15.236Z,989.13
2016-11-20T14:15:30.033Z,989.1
2016-11-20T14:16:44.938Z,989.09
2016-11-20T14:17:59.832Z,989.17
2016-11-20T14:19:14.723Z,989.13
2016-11-20T14:20:29.920Z,989.03
2016-11-20T14:21:44.633Z,989.24
2016-11-20T14:23:13.683Z,989.27
2016-11-20T14:24:29.609Z,989.25
2016-11-20T14:25:44.396Z,989.24
2016-11-20T14:27:13.984Z,989.23
2016-11-20T14:28:28.520Z,989.24
2016-11-20T14:29:42.956Z,989.18
2016-11-20T14:30:58.147Z,989.25
2016-11-20T14:32:12.613Z,989.25
2016-11-20T14:33:27.874Z,989.33
2016-11-20T14:34:42.313Z,989.25
2016-11-20T14:35:57.363Z,989.37
2016-11-20T14:37:12.135Z,989.34
2016-11-20T14:38:26.977Z,989.37
2016-11-20T14:39:42.004Z,989.32
2016-11-20T14:40:56.425Z,989.41
2016-11-20T14:42:11.040Z,989.44
2016-11-20T14:43:25.798Z,989.43
2016-11-20T14:44:40.224Z,989.46
2016-11-20T14:45:55.448Z,989.47
2016-11-20T14:47:09.864Z,989.53
2016-11-20T14:48:24.721Z,989.6
2016-11-20T14:49:38.901Z,989.65
2016-11-20T14:50:53.474Z,989.74
2016-11-20T14:52:07.689Z,989.82
2016-11-20T14:53:22.388Z,989.76
2016-11-20T14:54:37.028Z,989.84
2016-11-20T14:55:51.526Z,989.75
2016-11-20T14:57:06.462Z,989.86
2016-11-20T14:58:21.624Z,989.83
2016-11-20T14:59:36.155Z,989.92
2016-11-20T15:00:51.127Z,989.93
2016-11-20T15:02:05.757Z,989.92
2016-11-20T15:03:20.288Z,989.91
2016-11-20T15:04:35.840Z,989.95
2016-11-20T15:05:51.620Z,989.94
2016-11-20T15:07:05.931Z,990
2016-11-20T15:08:20.939Z,990
2016-11-20T15:09:36.068Z,989.91
2016-11-20T15:10:50.790Z,989.96
2016-11-20T15:12:06.238Z,990.09
2016-11-20T15:13:21.187Z,990.1
2016-11-20T15:14:35.983Z,990.1
2016-11-20T15:15:50.599Z,990.13
2016-11-20T15:17:05.016Z,990.17
2016-11-20T15:18:19.599Z,990.12
2016-11-20T15:19:34.687Z,990.19
2016-11-20T15:20:49.213Z,990.16
2016-11-20T15:22:04.200Z,990.24
2016-11-20T15:23:19.718Z,990.3
2016-11-20T15:24:35.166Z,990.3
2016-11-20T15:26:04.551Z,990.36
2016-11-20T15:27:18.908Z,990.41
2016-11-20T15:28:33.687Z,990.42
2016-11-20T15:29:49.231Z,990.38
2016-11-20T15:31:06.335Z,990.47
2016-11-20T15:32:20.949Z,990.49
2016-11-20T15:33:36.574Z,990.51
2016-11-20T15:34:51.279Z,990.59
2016-11-20T15:36:05.764Z,990.6
2016-11-20T15:37:19.994Z,990.6
2016-11-20T15:38:34.445Z,990.62
2016-11-20T15:39:50.780Z,990.71
2016-11-20T15:41:05.422Z,990.71
2016-11-20T15:42:20.393Z,990.71
2016-11-20T15:43:34.778Z,990.74
2016-11-20T15:44:49.989Z,990.71
2016-11-20T15:46:04.330Z,990.71
2016-11-20T15:47:18.930Z,990.74
2016-11-20T15:48:33.076Z,990.75
2016-11-20T15:49:47.984Z,990.77
2016-11-20T15:51:16.902Z,990.81
2016-11-20T15:52:31.764Z,990.79
2016-11-20T15:53:46.630Z,990.82
2016-11-20T15:55:00.859Z,990.83
2016-11-20T15:56:15.093Z,990.83
2016-11-20T15:57:29.724Z,990.87
2016-11-20T15:58:43.946Z,990.86
2016-11-20T16:00:13.659Z,990.89
2016-11-20T16:01:28.312Z,990.93
2016-11-20T16:02:42.790Z,990.97
2016-11-20T16:03:56.984Z,991.05
2016-11-20T16:05:11.733Z,991.08